Time;durP1;ratioP1;P1;durP2;ratioP2;P2;SDS_P1;SDS_P2;PMS_P1;PMS_P2;Temp;Humidity;BMP_temperature;BMP_pressure;BME280_temperature;BME280_humidity;BME280_pressure;Samples;Min_cycle;Max_cycle;Signal;HPM_P1;HPM_P2
2022/01/09 00:00:24;;;;;;;17.65;16.85;;;6.00;85.30;;;;;;5033733;28;20217;-72
2022/01/09 00:02:51;;;;;;;16.77;15.98;;;6.00;85.50;;;;;;5034013;28;20193;-72
2022/01/09 00:05:19;;;;;;;17.33;16.52;;;5.90;85.70;;;;;;5033742;28;20193;-71
2022/01/09 00:07:46;;;;;;;16.42;15.73;;;6.00;85.60;;;;;;5033823;28;20680;-72
2022/01/09 00:10:13;;;;;;;17.38;16.58;;;6.00;85.50;;;;;;5033486;28;20218;-72
2022/01/09 00:12:40;;;;;;;16.65;15.95;;;6.00;86.20;;;;;;5033702;28;20193;-71
2022/01/09 00:15:10;;;;;;;16.15;15.45;;;6.00;86.20;;;;;;5033655;28;20207;-71
2022/01/09 00:17:37;;;;;;;15.90;15.20;;;6.00;86.40;;;;;;5033593;28;20203;-72
2022/01/09 00:20:05;;;;;;;31.50;16.05;;;6.00;86.50;;;;;;5033340;28;20582;-72
2022/01/09 00:22:37;;;;;;;15.50;14.80;;;5.90;87.00;;;;;;5033692;28;20270;-72
2022/01/09 00:25:05;;;;;;;15.90;15.20;;;5.90;87.40;;;;;;5033344;28;20259;-71
2022/01/09 00:27:32;;;;;;;15.35;14.75;;;6.00;87.50;;;;;;5033078;28;20309;-72
2022/01/09 00:29:58;;;;;;;15.52;14.82;;;6.00;87.30;;;;;;5033185;28;20593;-72
2022/01/09 00:32:27;;;;;;;16.00;15.20;;;6.10;87.50;;;;;;5033503;28;20212;-72
2022/01/09 00:34:53;;;;;;;14.55;13.95;;;6.10;87.70;;;;;;5033478;28;20608;-71
2022/01/09 00:37:20;;;;;;;14.52;13.93;;;6.20;87.50;;;;;;5033274;28;20193;-72
2022/01/09 00:39:47;;;;;;;14.52;13.93;;;6.00;88.00;;;;;;5033213;28;20308;-71
2022/01/09 00:42:14;;;;;;;14.70;14.10;;;6.00;88.80;;;;;;5033346;28;20205;-71
2022/01/09 00:44:41;;;;;;;15.20;14.60;;;6.00;88.80;;;;;;5033287;28;20193;-71
2022/01/09 00:47:08;;;;;;;14.88;14.18;;;5.80;89.10;;;;;;5033073;28;20229;-72
2022/01/09 00:49:36;;;;;;;15.00;14.40;;;5.90;89.40;;;;;;5032810;28;20401;-72
2022/01/09 00:52:03;;;;;;;14.93;14.32;;;5.90;88.90;;;;;;5033168;28;20205;-71
2022/01/09 00:54:30;;;;;;;14.80;14.20;;;5.90;88.80;;;;;;5033095;28;20284;-71
2022/01/09 00:56:57;;;;;;;15.00;14.30;;;5.90;89.10;;;;;;5032930;28;20769;-71
2022/01/09 00:59:24;;;;;;;14.80;14.20;;;5.90;89.10;;;;;;5032723;28;20228;-71
2022/01/09 01:01:51;;;;;;;14.25;13.65;;;5.90;89.30;;;;;;5033032;28;20204;-71
2022/01/09 01:04:18;;;;;;;14.50;13.90;;;5.90;89.20;;;;;;5032903;28;20201;-71
2022/01/09 01:06:46;;;;;;;13.82;13.32;;;5.90;89.30;;;;;;5032801;28;20217;-71
2022/01/09 01:09:13;;;;;;;13.80;13.20;;;5.80;89.20;;;;;;5032688;28;20574;-71
2022/01/09 01:11:40;;;;;;;13.93;13.32;;;5.80;89.60;;;;;;5033027;28;20635;-71
2022/01/09 01:14:07;;;;;;;13.93;13.32;;;5.80;89.80;;;;;;5032745;28;20198;-71
2022/01/09 01:16:34;;;;;;;14.30;13.70;;;5.90;89.70;;;;;;5032668;28;20197;-71
2022/01/09 01:19:02;;;;;;;14.20;13.60;;;5.90;89.70;;;;;;5032672;28;20248;-72
2022/01/09 01:21:30;;;;;;;14.15;13.55;;;5.90;89.70;;;;;;5032630;28;20236;-71
2022/01/09 01:23:58;;;;;;;14.55;13.95;;;6.00;89.70;;;;;;5032631;28;20634;-71
2022/01/09 01:26:25;;;;;;;15.20;14.40;;;6.00;89.60;;;;;;5032427;28;20221;-71
2022/01/09 01:28:52;;;;;;;14.45;13.85;;;6.00;89.30;;;;;;5032423;28;20193;-72
2022/01/09 01:31:19;;;;;;;14.52;13.93;;;5.90;89.40;;;;;;5032435;28;20679;-72
2022/01/09 01:33:45;;;;;;;14.20;13.60;;;5.90;89.60;;;;;;5032431;28;20296;-72
2022/01/09 01:36:12;;;;;;;14.50;13.90;;;6.00;89.60;;;;;;5032567;28;20193;-71
2022/01/09 01:38:39;;;;;;;13.88;13.27;;;6.00;89.50;;;;;;5032240;28;20753;-71
2022/01/09 01:41:07;;;;;;;13.95;13.35;;;6.00;89.60;;;;;;5032495;28;20284;-72
2022/01/09 01:43:34;;;;;;;13.73;13.23;;;6.00;89.50;;;;;;5032604;28;20201;-71
2022/01/09 01:46:02;;;;;;;14.02;13.43;;;5.90;90.30;;;;;;5032428;28;20240;-72
2022/01/09 01:48:30;;;;;;;14.00;13.40;;;5.90;90.00;;;;;;5032444;28;20197;-71
2022/01/09 01:50:58;;;;;;;13.85;13.25;;;5.90;90.20;;;;;;5031991;28;20312;-72
2022/01/09 01:53:25;;;;;;;15.10;14.40;;;5.90;90.00;;;;;;5032469;28;20204;-71
2022/01/09 01:55:55;;;;;;;14.93;14.23;;;5.90;89.90;;;;;;5032120;28;20224;-72
2022/01/09 01:58:26;;;;;;;14.25;13.65;;;5.90;90.40;;;;;;5032671;28;20536;-72
2022/01/09 02:00:53;;;;;;;14.32;13.73;;;6.00;89.80;;;;;;5032283;28;20275;-72
2022/01/09 02:03:20;;;;;;;14.20;13.60;;;6.10;89.10;;;;;;5032421;28;20201;-72
2022/01/09 02:05:47;;;;;;;14.30;13.70;;;6.10;88.90;;;;;;5032133;28;20200;-72
2022/01/09 02:08:14;;;;;;;14.43;13.82;;;6.00;88.50;;;;;;5032154;28;20666;-71
2022/01/09 02:10:44;;;;;;;13.98;13.38;;;5.90;89.20;;;;;;5031921;28;20224;-72
2022/01/09 02:13:11;;;;;;;14.73;14.13;;;6.00;88.90;;;;;;5032495;28;20247;-71
2022/01/09 02:15:43;;;;;;;13.90;13.30;;;6.00;89.00;;;;;;5032168;28;20201;-72
2022/01/09 02:18:11;;;;;;;14.73;13.93;;;6.10;88.90;;;;;;5032293;28;20205;-72
2022/01/09 02:20:40;;;;;;;14.30;13.70;;;6.00;89.00;;;;;;5031773;28;20305;-72
2022/01/09 02:23:08;;;;;;;14.35;13.75;;;6.00;89.40;;;;;;5032078;28;20233;-71
2022/01/09 02:25:36;;;;;;;14.20;13.60;;;6.00;89.30;;;;;;5032108;28;20666;-72
2022/01/09 02:28:04;;;;;;;14.05;13.45;;;6.00;89.30;;;;;;5031953;28;20239;-72
2022/01/09 02:30:32;;;;;;;14.40;13.80;;;6.00;89.20;;;;;;5031836;28;20306;-71
2022/01/09 02:32:59;;;;;;;14.02;13.43;;;6.00;89.20;;;;;;5032083;28;20220;-71
2022/01/09 02:35:27;;;;;;;14.70;14.10;;;6.00;89.10;;;;;;5031775;28;20193;-71
2022/01/09 02:37:55;;;;;;;14.65;14.05;;;6.10;88.60;;;;;;5031880;28;20563;-71
2022/01/09 02:40:23;;;;;;;15.02;14.43;;;6.00;88.60;;;;;;5031710;28;20718;-72
2022/01/09 02:42:51;;;;;;;14.30;13.70;;;6.00;90.30;;;;;;5031891;28;20292;-71
2022/01/09 02:45:21;;;;;;;14.77;14.18;;;6.00;89.60;;;;;;5032023;28;20198;-72
2022/01/09 02:47:48;;;;;;;14.65;14.05;;;5.90;89.10;;;;;;5031876;28;20244;-72
2022/01/09 02:50:29;;;;;;;14.63;14.02;;;5.90;89.20;;;;;;5033913;28;20221;-71
2022/01/09 02:53:00;;;;;;;14.98;14.30;;;5.90;88.60;;;;;;5035494;28;20205;-71
2022/01/09 02:55:28;;;;;;;14.50;13.90;;;5.90;88.70;;;;;;5035279;28;20673;-72
2022/01/09 02:57:58;;;;;;;14.68;14.07;;;5.90;88.40;;;;;;5035397;28;20280;-71
2022/01/09 03:00:30;;;;;;;14.65;14.05;;;5.90;88.20;;;;;;5034934;28;20218;-71
2022/01/09 03:02:58;;;;;;;14.48;13.88;;;5.90;88.90;;;;;;5035169;28;20197;-72
2022/01/09 03:05:26;;;;;;;14.50;13.90;;;5.80;90.30;;;;;;5035333;28;20655;-72
2022/01/09 03:07:53;;;;;;;14.80;14.20;;;5.80;89.40;;;;;;5035185;28;20221;-71
2022/01/09 03:10:23;;;;;;;15.20;14.50;;;5.80;89.20;;;;;;5035013;28;20581;-71
2022/01/09 03:12:52;;;;;;;14.30;13.70;;;5.80;89.10;;;;;;5035112;28;20193;-71
2022/01/09 03:15:19;;;;;;;15.07;14.38;;;5.80;89.00;;;;;;5034921;28;20197;-72
2022/01/09 03:17:46;;;;;;;14.30;13.70;;;5.90;88.90;;;;;;5034847;28;20284;-71
2022/01/09 03:20:15;;;;;;;14.57;13.88;;;5.90;88.90;;;;;;5034740;28;20722;-72
2022/01/09 03:22:42;;;;;;;14.70;14.10;;;6.00;88.50;;;;;;5034936;28;20593;-71
2022/01/09 03:25:10;;;;;;;14.68;13.98;;;6.00;88.40;;;;;;5034840;28;20596;-71
2022/01/09 03:27:40;;;;;;;14.60;14.00;;;5.90;88.80;;;;;;5034567;28;20217;-71
2022/01/09 03:30:08;;;;;;;14.55;13.95;;;6.00;88.60;;;;;;5034488;28;20219;-71
2022/01/09 03:32:36;;;;;;;14.38;13.77;;;6.00;88.50;;;;;;5034581;28;20304;-72
2022/01/09 03:35:03;;;;;;;15.07;14.48;;;6.00;88.40;;;;;;5034594;28;20197;-71
2022/01/09 03:37:30;;;;;;;15.05;14.43;;;6.00;88.70;;;;;;5034546;28;20189;-72
2022/01/09 03:39:57;;;;;;;14.90;14.20;;;6.10;88.70;;;;;;5034089;28;20213;-71
2022/01/09 03:42:23;;;;;;;15.90;15.13;;;6.00;88.80;;;;;;5034683;28;20197;-71
2022/01/09 03:44:52;;;;;;;14.38;13.77;;;6.00;89.10;;;;;;5034465;28;20197;-71
2022/01/09 03:47:19;;;;;;;14.40;13.80;;;6.10;89.00;;;;;;5034355;28;20221;-71
2022/01/09 03:49:45;;;;;;;15.18;14.57;;;6.20;88.60;;;;;;5034012;28;20227;-71
2022/01/09 03:52:13;;;;;;;14.75;14.15;;;6.20;88.30;;;;;;5034623;28;20208;-71
2022/01/09 03:54:40;;;;;;;14.70;14.10;;;6.20;88.30;;;;;;5034212;28;20293;-71
2022/01/09 03:57:07;;;;;;;16.00;15.30;;;6.10;88.50;;;;;;5034068;28;20203;-72
2022/01/09 03:59:34;;;;;;;14.80;14.20;;;6.10;88.30;;;;;;5033966;28;20221;-71
2022/01/09 04:02:03;;;;;;;15.10;14.40;;;6.00;88.90;;;;;;5033103;28;20203;-72
2022/01/09 04:04:30;;;;;;;15.00;14.35;;;6.10;89.10;;;;;;5034048;28;20677;-72
2022/01/09 04:06:56;;;;;;;16.00;15.30;;;6.00;90.20;;;;;;5033933;28;20595;-71
2022/01/09 04:09:37;;;;;;;15.27;14.57;;;6.00;89.40;;;;;;5033702;28;20312;-71
2022/01/09 04:12:06;;;;;;;16.05;15.35;;;6.10;89.20;;;;;;5034140;28;20284;-72
2022/01/09 04:14:33;;;;;;;15.65;14.95;;;6.10;88.80;;;;;;5033910;28;20202;-72
2022/01/09 04:17:04;;;;;;;15.50;14.80;;;6.00;89.20;;;;;;5033905;28;20201;-72
2022/01/09 04:19:31;;;;;;;15.23;14.52;;;6.10;89.30;;;;;;5033669;28;20694;-72
2022/01/09 04:21:58;;;;;;;15.30;14.60;;;6.00;89.40;;;;;;5033708;28;20558;-72
2022/01/09 04:24:24;;;;;;;15.45;14.55;;;6.00;89.60;;;;;;5033817;28;20649;-71
2022/01/09 04:26:51;;;;;;;14.63;14.02;;;6.10;89.70;;;;;;5033686;28;20197;-71
2022/01/09 04:29:18;;;;;;;14.55;13.95;;;6.20;89.30;;;;;;5033353;28;20314;-72
2022/01/09 04:31:45;;;;;;;15.00;14.40;;;6.20;89.30;;;;;;5033562;28;20201;-72
2022/01/09 04:34:13;;;;;;;15.10;14.32;;;6.20;89.20;;;;;;5033603;28;20198;-72
2022/01/09 04:36:40;;;;;;;15.60;14.90;;;6.20;89.60;;;;;;5033515;28;20197;-72
2022/01/09 04:39:07;;;;;;;14.60;14.00;;;6.10;89.70;;;;;;5033289;28;20244;-72
2022/01/09 04:41:34;;;;;;;14.93;14.32;;;6.10;90.30;;;;;;5033482;28;20236;-72
2022/01/09 04:44:01;;;;;;;15.05;14.35;;;6.10;90.10;;;;;;5033430;28;20201;-71
2022/01/09 04:46:41;;;;;;;14.40;13.80;;;6.20;89.60;;;;;;5033325;28;20300;-72
2022/01/09 04:49:08;;;;;;;15.00;14.30;;;6.20;89.50;;;;;;5033192;28;20221;-71
2022/01/09 04:51:36;;;;;;;14.85;14.25;;;6.10;89.60;;;;;;5032824;28;20197;-71
2022/01/09 04:54:04;;;;;;;14.27;13.65;;;6.10;89.50;;;;;;5033183;28;20212;-72
2022/01/09 04:56:31;;;;;;;14.15;13.55;;;6.10;89.30;;;;;;5033123;28;20197;-72
2022/01/09 04:58:58;;;;;;;14.40;13.80;;;5.90;89.40;;;;;;5032956;28;20331;-72
2022/01/09 05:01:25;;;;;;;14.35;13.75;;;5.90;90.00;;;;;;5033034;28;20558;-71
2022/01/09 05:03:53;;;;;;;14.88;14.27;;;5.80;89.50;;;;;;5033021;28;20224;-71
2022/01/09 05:06:21;;;;;;;14.93;14.32;;;5.80;89.50;;;;;;5033062;28;20284;-71
2022/01/09 05:08:49;;;;;;;14.93;14.32;;;5.80;89.60;;;;;;5032759;28;20224;-72
2022/01/09 05:11:16;;;;;;;14.85;14.25;;;5.80;89.50;;;;;;5032738;28;20201;-72
2022/01/09 05:13:43;;;;;;;14.70;14.10;;;5.70;89.70;;;;;;5032523;28;20219;-72
2022/01/09 05:16:10;;;;;;;15.20;14.50;;;5.60;89.40;;;;;;5032892;28;20227;-72
2022/01/09 05:18:50;;;;;;;14.90;14.30;;;5.40;89.40;;;;;;5032710;28;20655;-72
2022/01/09 05:21:17;;;;;;;15.25;14.65;;;5.40;89.70;;;;;;5032840;28;20609;-71
2022/01/09 05:23:44;;;;;;;15.00;14.40;;;5.30;89.20;;;;;;5032733;28;20255;-71
2022/01/09 05:26:12;;;;;;;15.45;14.75;;;5.20;89.50;;;;;;5032600;28;20209;-72
2022/01/09 05:28:39;;;;;;;14.90;14.30;;;5.20;89.70;;;;;;5032473;28;20221;-71
2022/01/09 05:31:06;;;;;;;16.33;15.63;;;5.20;89.30;;;;;;5032634;28;20288;-72
2022/01/09 05:33:34;;;;;;;14.90;14.25;;;5.20;89.50;;;;;;5032596;28;20213;-71
2022/01/09 05:36:01;;;;;;;13.70;13.10;;;5.20;89.90;;;;;;5032539;28;20351;-71
2022/01/09 05:38:27;;;;;;;14.38;13.68;;;5.20;90.10;;;;;;5032559;28;20219;-71
2022/01/09 05:40:54;;;;;;;14.68;14.07;;;5.20;89.60;;;;;;5032147;28;20714;-71
2022/01/09 05:43:23;;;;;;;15.50;14.85;;;5.10;90.40;;;;;;5032480;28;20202;-71
2022/01/09 05:45:50;;;;;;;15.52;14.70;;;5.10;90.10;;;;;;5032522;28;20205;-72
2022/01/09 05:48:17;;;;;;;14.80;14.20;;;5.00;90.10;;;;;;5032483;28;20213;-71
2022/01/09 05:50:44;;;;;;;14.57;13.82;;;5.00;89.90;;;;;;5032158;28;20230;-72
2022/01/09 05:53:11;;;;;;;15.05;14.45;;;5.10;90.20;;;;;;5032486;28;20732;-72
2022/01/09 05:55:38;;;;;;;14.88;14.27;;;5.00;89.90;;;;;;5032152;28;20201;-71
2022/01/09 05:58:05;;;;;;;15.20;14.50;;;5.00;90.30;;;;;;5032469;28;20193;-71
2022/01/09 06:00:33;;;;;;;15.65;14.95;;;5.00;90.70;;;;;;5032178;28;20224;-72
2022/01/09 06:03:00;;;;;;;15.75;15.05;;;4.90;90.50;;;;;;5040429;22;20243;-71
2022/01/09 06:05:27;;;;;;;15.70;15.00;;;4.90;90.50;;;;;;5032325;28;20203;-71
2022/01/09 06:07:54;;;;;;;15.77;15.07;;;4.80;90.50;;;;;;5031956;28;20312;-71
2022/01/09 06:10:21;;;;;;;15.95;15.15;;;4.90;90.80;;;;;;5031943;28;20307;-71
2022/01/09 06:12:48;;;;;;;15.88;15.07;;;4.80;90.70;;;;;;5032553;28;20314;-71
2022/01/09 06:15:15;;;;;;;15.50;14.80;;;4.90;90.50;;;;;;5032303;28;20201;-71
2022/01/09 06:17:45;;;;;;;15.95;15.20;;;4.90;90.70;;;;;;5032407;28;20198;-71
2022/01/09 06:20:14;;;;;;;15.75;14.95;;;5.00;90.60;;;;;;5032023;28;20239;-71
2022/01/09 06:22:42;;;;;;;15.60;14.90;;;5.00;90.50;;;;;;5032250;28;20197;-71
2022/01/09 06:25:10;;;;;;;16.15;15.20;;;4.90;90.40;;;;;;5034816;28;20677;-71
2022/01/09 06:27:37;;;;;;;15.68;14.88;;;4.90;90.20;;;;;;5035791;28;20300;-71
2022/01/09 06:30:06;;;;;;;16.63;15.60;;;5.00;90.60;;;;;;5035604;28;20217;-72
2022/01/09 06:32:33;;;;;;;15.85;15.25;;;5.00;90.50;;;;;;5035940;28;20280;-71
2022/01/09 06:35:02;;;;;;;15.18;14.48;;;4.90;90.90;;;;;;5035628;28;20197;-71
2022/01/09 06:37:29;;;;;;;15.13;14.43;;;4.90;90.70;;;;;;5035828;28;20200;-71
2022/01/09 06:39:56;;;;;;;15.38;14.68;;;4.90;90.80;;;;;;5035546;28;20311;-71
2022/01/09 06:42:23;;;;;;;15.50;14.80;;;5.00;91.10;;;;;;5035695;28;20521;-72
2022/01/09 06:44:49;;;;;;;15.60;14.90;;;4.90;90.50;;;;;;5035682;28;20292;-71
2022/01/09 06:47:16;;;;;;;16.83;16.00;;;4.90;90.60;;;;;;5035481;28;20198;-71
2022/01/09 06:49:43;;;;;;;15.70;14.90;;;4.90;90.70;;;;;;5035247;28;20304;-71
2022/01/09 06:52:11;;;;;;;16.27;15.55;;;4.80;91.30;;;;;;5035320;28;20197;-71
2022/01/09 06:54:38;;;;;;;15.50;14.80;;;4.90;91.30;;;;;;5035533;28;20197;-71
2022/01/09 06:57:06;;;;;;;16.00;15.30;;;4.90;91.40;;;;;;5035225;28;20205;-71
2022/01/09 06:59:32;;;;;;;15.70;15.00;;;4.90;91.70;;;;;;5035270;28;20336;-71
2022/01/09 07:01:59;;;;;;;16.23;15.43;;;5.00;91.50;;;;;;5035215;28;20205;-71
2022/01/09 07:04:26;;;;;;;16.23;15.52;;;4.90;91.40;;;;;;5035637;28;20566;-71
2022/01/09 07:06:53;;;;;;;17.48;16.67;;;4.80;91.40;;;;;;5035497;28;20200;-71
2022/01/09 07:09:23;;;;;;;16.30;15.60;;;4.70;91.50;;;;;;5035007;28;20225;-71
2022/01/09 07:11:50;;;;;;;15.93;15.13;;;4.70;91.10;;;;;;5035246;28;20677;-71
2022/01/09 07:14:17;;;;;;;17.58;16.77;;;4.70;91.40;;;;;;5035014;28;20653;-71
2022/01/09 07:16:43;;;;;;;16.52;15.50;;;4.70;91.60;;;;;;5034866;28;20625;-71
2022/01/09 07:19:10;;;;;;;197.88;30.45;;;4.70;91.70;;;;;;5034718;28;20210;-72
2022/01/09 07:21:37;;;;;;;15.20;14.25;;;4.80;91.50;;;;;;5034782;28;20197;-71
2022/01/09 07:24:05;;;;;;;15.48;14.77;;;4.80;91.10;;;;;;5035008;28;20223;-72
2022/01/09 07:26:33;;;;;;;16.00;15.20;;;4.80;91.00;;;;;;5034851;28;20197;-71
2022/01/09 07:29:00;;;;;;;16.30;15.50;;;4.80;90.80;;;;;;5034503;28;20225;-71
2022/01/09 07:31:26;;;;;;;16.58;15.65;;;4.70;91.00;;;;;;5034570;28;20209;-71
2022/01/09 07:33:53;;;;;;;16.58;15.73;;;4.70;90.90;;;;;;5034701;28;20204;-72
2022/01/09 07:36:20;;;;;;;16.00;15.07;;;4.70;90.80;;;;;;5034270;28;20527;-72
2022/01/09 07:38:47;;;;;;;15.65;14.95;;;4.70;90.80;;;;;;5034631;28;20558;-71
2022/01/09 07:41:15;;;;;;;17.85;16.75;;;4.80;90.50;;;;;;5034470;28;20202;-71
2022/01/09 07:43:43;;;;;;;16.10;15.20;;;4.80;90.20;;;;;;5034307;28;20201;-71
2022/01/09 07:46:10;;;;;;;17.05;16.15;;;4.80;89.60;;;;;;5034423;28;20201;-71
2022/01/09 07:48:37;;;;;;;18.35;17.10;;;4.80;89.50;;;;;;5034127;28;20217;-71
2022/01/09 07:51:04;;;;;;;17.52;16.50;;;4.80;89.30;;;;;;5034058;28;20655;-71
2022/01/09 07:53:31;;;;;;;16.98;16.08;;;4.80;89.20;;;;;;5034260;28;20201;-71
2022/01/09 07:55:58;;;;;;;17.63;16.42;;;4.80;89.10;;;;;;5034077;28;20208;-71
2022/01/09 07:58:25;;;;;;;17.27;16.27;;;4.90;89.40;;;;;;5034216;28;20197;-71
2022/01/09 08:00:53;;;;;;;17.83;16.92;;;4.90;88.60;;;;;;5033996;28;20247;-71
2022/01/09 08:03:20;;;;;;;18.55;17.25;;;4.80;88.50;;;;;;5034019;28;20689;-71
2022/01/09 08:05:47;;;;;;;17.75;16.65;;;4.90;88.80;;;;;;5034125;28;20750;-71
2022/01/09 08:08:14;;;;;;;17.42;16.42;;;4.90;88.10;;;;;;5033962;28;20308;-71
2022/01/09 08:10:41;;;;;;;18.50;16.98;;;5.10;87.40;;;;;;5033527;28;20223;-71
2022/01/09 08:13:08;;;;;;;20.17;18.75;;;5.10;86.90;;;;;;5033952;28;20594;-71
2022/01/09 08:15:34;;;;;;;17.80;16.77;;;5.10;86.90;;;;;;5033821;28;20225;-71
2022/01/09 08:18:03;;;;;;;18.75;17.25;;;5.10;85.90;;;;;;5033667;28;20204;-71
2022/01/09 08:20:31;;;;;;;18.08;16.98;;;5.10;85.60;;;;;;5033523;28;20582;-71
2022/01/09 08:22:58;;;;;;;19.85;18.02;;;5.20;84.90;;;;;;5033826;28;20194;-71
2022/01/09 08:25:25;;;;;;;18.50;17.35;;;5.20;84.40;;;;;;5033604;28;20658;-71
2022/01/09 08:27:52;;;;;;;18.60;17.50;;;5.20;84.20;;;;;;5033526;28;20737;-71
2022/01/09 08:30:20;;;;;;;19.15;18.00;;;5.20;83.60;;;;;;5033538;28;20260;-71
2022/01/09 08:32:47;;;;;;;19.35;18.25;;;5.10;83.80;;;;;;5033510;28;20728;-71
2022/01/09 08:35:16;;;;;;;19.63;18.27;;;5.20;84.50;;;;;;5033381;28;20288;-71
2022/01/09 08:37:44;;;;;;;19.48;17.98;;;5.20;83.90;;;;;;5033348;28;20287;-71
2022/01/09 08:40:12;;;;;;;20.75;19.20;;;5.20;83.20;;;;;;5033090;28;20248;-71
2022/01/09 08:42:40;;;;;;;18.70;17.60;;;5.30;83.50;;;;;;5033392;28;20288;-71
2022/01/09 08:45:08;;;;;;;19.50;18.13;;;5.40;82.80;;;;;;5033234;28;20197;-71
2022/01/09 08:47:37;;;;;;;20.15;18.55;;;5.30;81.70;;;;;;5032645;28;20203;-71
2022/01/09 08:50:05;;;;;;;20.00;18.35;;;5.30;81.30;;;;;;5032787;28;20228;-71
2022/01/09 08:52:33;;;;;;;19.73;18.55;;;5.40;81.90;;;;;;5033129;28;20197;-71
2022/01/09 08:55:00;;;;;;;19.45;18.42;;;5.50;81.70;;;;;;5033038;28;20571;-71
2022/01/09 08:57:27;;;;;;;20.15;18.95;;;5.50;81.10;;;;;;5032936;28;20658;-71
2022/01/09 08:59:54;;;;;;;20.10;18.90;;;5.50;80.50;;;;;;5032814;28;20223;-71
2022/01/09 09:02:21;;;;;;;21.05;19.42;;;5.50;80.40;;;;;;5032765;28;20205;-72
2022/01/09 09:04:48;;;;;;;20.63;19.08;;;5.70;79.50;;;;;;5032680;28;20198;-71
2022/01/09 09:07:18;;;;;;;20.80;19.35;;;5.80;79.20;;;;;;5032724;28;20291;-71
2022/01/09 09:09:48;;;;;;;21.33;19.80;;;5.90;78.80;;;;;;5032642;28;20225;-71
2022/01/09 09:12:15;;;;;;;22.00;20.23;;;5.80;78.30;;;;;;5032905;28;20193;-71
2022/01/09 09:14:42;;;;;;;20.17;18.83;;;5.90;78.10;;;;;;5032754;28;20200;-71
2022/01/09 09:17:09;;;;;;;20.60;19.00;;;5.90;78.80;;;;;;5032755;28;20232;-71
2022/01/09 09:19:36;;;;;;;20.83;19.55;;;5.90;80.30;;;;;;5032673;28;20221;-71
2022/01/09 09:22:03;;;;;;;20.83;19.20;;;5.80;79.90;;;;;;5032602;28;20205;-71
2022/01/09 09:24:29;;;;;;;20.50;19.02;;;5.80;80.50;;;;;;5032689;28;20197;-72
2022/01/09 09:26:58;;;;;;;19.98;18.88;;;5.80;80.90;;;;;;5032658;28;20295;-72
2022/01/09 09:29:25;;;;;;;20.40;19.23;;;5.90;81.10;;;;;;5032193;28;20223;-71
2022/01/09 09:31:51;;;;;;;19.95;18.65;;;6.00;80.60;;;;;;5032538;28;20208;-72
2022/01/09 09:34:18;;;;;;;20.38;19.08;;;6.20;79.70;;;;;;5032427;28;20292;-71
2022/01/09 09:36:45;;;;;;;20.67;19.17;;;6.30;80.20;;;;;;5032384;28;20201;-72
2022/01/09 09:39:13;;;;;;;21.33;19.60;;;6.40;78.80;;;;;;5032124;28;20637;-72
2022/01/09 09:41:41;;;;;;;21.45;20.05;;;6.30;78.80;;;;;;5032495;28;20666;-72
2022/01/09 09:44:09;;;;;;;21.63;20.23;;;6.00;79.30;;;;;;5032440;28;20197;-72
2022/01/09 09:46:37;;;;;;;21.08;19.67;;;5.90;79.40;;;;;;5032484;28;20223;-72
2022/01/09 09:49:05;;;;;;;21.73;20.30;;;5.60;80.40;;;;;;5032175;28;20652;-72
2022/01/09 09:51:32;;;;;;;21.00;19.50;;;5.40;82.00;;;;;;5032080;28;20229;-72
2022/01/09 09:53:59;;;;;;;22.45;20.23;;;5.20;84.20;;;;;;5032275;28;20197;-72
2022/01/09 09:56:26;;;;;;;19.80;18.55;;;5.50;84.80;;;;;;5032237;28;20680;-72
2022/01/09 09:58:59;;;;;;;22.33;20.35;;;5.70;84.30;;;;;;5034453;28;20200;-72
2022/01/09 10:01:30;;;;;;;21.00;19.30;;;5.90;83.60;;;;;;5036082;28;20824;-72
2022/01/09 10:03:58;;;;;;;21.75;20.25;;;6.10;83.60;;;;;;5036383;28;20292;-72
2022/01/09 10:06:35;;;;;;;20.40;19.00;;;6.40;82.60;;;;;;5036460;28;20197;-72
2022/01/09 10:09:07;;;;;;;20.92;19.23;;;6.60;81.80;;;;;;5036275;28;20298;-72
2022/01/09 10:11:43;;;;;;;21.58;20.17;;;6.60;82.60;;;;;;5036154;28;20208;-72
2022/01/09 10:14:15;;;;;;;19.35;18.15;;;6.70;82.20;;;;;;5036129;28;20287;-72
2022/01/09 10:17:04;;;;;;;20.10;18.40;;;6.80;81.70;;;;;;5036141;28;20204;-72
2022/01/09 10:19:45;;;;;;;22.58;21.08;;;7.00;79.10;;;;;;5035766;28;20219;-72
2022/01/09 10:22:36;;;;;;;20.40;18.80;;;7.00;78.60;;;;;;5036091;28;20665;-72
2022/01/09 10:25:27;;;;;;;21.92;20.25;;;6.90;79.50;;;;;;5036072;28;20701;-72
2022/01/09 10:28:01;;;;;;;22.23;20.70;;;6.90;80.10;;;;;;5035962;28;20201;-72
2022/01/09 10:30:30;;;;;;;22.27;20.35;;;6.90;79.80;;;;;;5035489;28;20232;-72
2022/01/09 10:33:01;;;;;;;21.58;20.27;;;6.80;81.00;;;;;;5035775;28;20197;-72
2022/01/09 10:35:29;;;;;;;19.67;18.35;;;6.90;79.50;;;;;;5035951;28;20284;-71
2022/01/09 10:38:09;;;;;;;22.02;20.27;;;7.00;83.10;;;;;;5035805;28;20207;-71
2022/01/09 10:40:38;;;;;;;21.48;20.10;;;7.20;79.70;;;;;;5035354;28;20300;-72
2022/01/09 10:43:08;;;;;;;21.42;19.80;;;7.30;79.60;;;;;;5035603;28;20197;-72
2022/01/09 10:45:39;;;;;;;24.52;22.77;;;7.40;79.10;;;;;;5035538;28;20198;-72
2022/01/09 10:48:11;;;;;;;22.63;21.13;;;7.40;79.50;;;;;;5035636;28;20276;-72
2022/01/09 10:50:41;;;;;;;22.10;20.77;;;7.10;78.50;;;;;;5035021;28;20217;-71
2022/01/09 10:53:26;;;;;;;23.42;21.75;;;6.70;80.00;;;;;;5035324;28;20227;-72
2022/01/09 10:56:11;;;;;;;22.35;20.80;;;6.60;82.00;;;;;;5035146;28;20732;-72
2022/01/09 10:58:40;;;;;;;22.50;20.90;;;6.60;81.80;;;;;;5035433;28;20193;-72
2022/01/09 11:01:10;;;;;;;21.52;19.92;;;6.70;81.70;;;;;;5035157;28;20251;-72
2022/01/09 11:03:38;;;;;;;21.20;19.70;;;6.90;81.60;;;;;;5035043;28;20674;-72
2022/01/09 11:06:07;;;;;;;20.70;19.13;;;6.90;80.80;;;;;;5035002;28;20197;-72
2022/01/09 11:08:36;;;;;;;20.10;18.92;;;6.90;80.40;;;;;;5035087;28;20296;-72
2022/01/09 11:11:07;;;;;;;21.27;19.73;;;6.90;80.60;;;;;;5034256;28;20229;-72
2022/01/09 11:13:36;;;;;;;21.00;19.40;;;6.90;81.00;;;;;;5034872;28;20205;-72
2022/01/09 11:18:49;;;;;;;20.23;19.08;;;7.10;79.60;;;;;;5034954;28;20193;-72
2022/01/09 11:21:16;;;;;;;20.85;19.15;;;7.30;78.60;;;;;;5034742;28;20557;-72
2022/01/09 11:23:57;;;;;;;20.73;19.42;;;7.40;78.20;;;;;;5034661;28;20201;-72
2022/01/09 11:26:33;;;;;;;20.65;19.38;;;7.50;77.90;;;;;;5034641;28;20201;-72
2022/01/09 11:29:03;;;;;;;21.58;20.15;;;7.50;77.10;;;;;;5034455;28;20308;-72
2022/01/09 11:31:39;;;;;;;21.83;20.33;;;7.50;77.60;;;;;;5034563;28;20611;-72
2022/01/09 11:34:16;;;;;;;20.70;19.60;;;7.50;78.30;;;;;;5034609;28;20207;-72
2022/01/09 11:36:59;;;;;;;20.98;19.52;;;7.40;77.10;;;;;;5034647;28;20228;-72
2022/01/09 11:39:35;;;;;;;21.92;20.27;;;7.40;77.00;;;;;;5034497;28;20249;-72
2022/01/09 11:42:10;;;;;;;20.35;19.15;;;7.40;77.40;;;;;;5034726;28;20256;-71
2022/01/09 11:44:45;;;;;;;22.40;21.02;;;7.40;77.50;;;;;;5034499;28;20199;-72
2022/01/09 11:47:13;;;;;;;21.13;19.80;;;7.60;76.80;;;;;;5034450;28;20201;-72
2022/01/09 11:50:08;;;;;;;21.15;19.85;;;7.70;76.60;;;;;;5033955;28;20240;-72
2022/01/09 11:53:01;;;;;;;23.05;21.65;;;7.80;75.70;;;;;;5034221;28;20246;-72
2022/01/09 11:55:36;;;;;;;20.00;19.00;;;7.90;76.30;;;;;;5034277;28;20203;-72
2022/01/09 11:58:08;;;;;;;20.20;19.00;;;8.00;76.20;;;;;;5033993;28;20296;-72
2022/01/09 12:00:37;;;;;;;22.88;21.25;;;7.90;75.70;;;;;;5033908;28;20221;-72
2022/01/09 12:03:34;;;;;;;21.77;20.38;;;7.80;75.70;;;;;;5034162;28;20213;-72
2022/01/09 12:06:02;;;;;;;20.65;19.25;;;7.80;75.10;;;;;;5034074;28;20205;-71
2022/01/09 12:09:07;;;;;;;21.63;20.13;;;7.80;75.90;;;;;;5033933;28;20560;-72
2022/01/09 12:12:09;;;;;;;20.85;19.35;;;7.70;77.40;;;;;;5034138;28;20673;-71
2022/01/09 12:14:58;;;;;;;25.23;23.27;;;7.60;75.20;;;;;;5033703;28;20543;-72
2022/01/09 12:17:42;;;;;;;21.55;20.35;;;7.80;74.60;;;;;;5033856;28;20255;-72
2022/01/09 12:20:23;;;;;;;21.95;20.75;;;7.80;74.40;;;;;;5033623;28;20217;-72
2022/01/09 12:23:03;;;;;;;21.10;19.77;;;7.90;74.40;;;;;;5032834;28;20201;-72
2022/01/09 12:25:43;;;;;;;22.17;20.70;;;7.90;74.50;;;;;;5033954;28;20563;-72
2022/01/09 12:28:13;;;;;;;22.77;21.30;;;8.00;75.90;;;;;;5033680;28;20200;-72
2022/01/09 12:30:46;;;;;;;21.25;19.98;;;8.00;74.30;;;;;;5033629;28;20641;-72
2022/01/09 12:33:16;;;;;;;22.92;21.63;;;7.90;74.80;;;;;;5034494;28;20324;-72
2022/01/09 12:35:45;;;;;;;21.27;19.98;;;8.00;73.80;;;;;;5034945;28;20189;-72
2022/01/09 12:38:16;;;;;;;21.67;20.38;;;7.80;74.70;;;;;;5033610;28;20202;-72
2022/01/09 12:40:46;;;;;;;22.10;20.42;;;7.80;75.10;;;;;;5033127;28;20223;-72
2022/01/09 12:43:23;;;;;;;21.65;19.75;;;7.60;75.10;;;;;;5110286;27;21063;-73
2022/01/09 12:45:52;;;;;;;21.55;20.05;;;7.50;75.00;;;;;;5110396;28;20191;-73
2022/01/09 12:48:20;;;;;;;21.17;19.88;;;7.60;75.40;;;;;;5110248;28;20202;-73